Time;durP1;ratioP1;P1;durP2;ratioP2;P2;SDS_P1;SDS_P2;PMS_P1;PMS_P2;Temp;Humidity;BMP_temperature;BMP_pressure;BME280_temperature;BME280_humidity;BME280_pressure;Samples;Min_cycle;Max_cycle;Signal;HPM_P1;HPM_P2
2023/05/09 00:00:09;;;;;;;19.30;10.70;;;;;;;4.69;63.22;101416.52;129774;1280;115142;-60
2023/05/09 00:03:32;;;;;;;16.30;10.50;;;;;;;4.69;63.50;101412.64;129526;1262;115243;-62
2023/05/09 00:06:35;;;;;;;19.70;11.20;;;;;;;4.69;63.41;101413.70;129659;1262;114786;-61
2023/05/09 00:09:37;;;;;;;27.40;11.20;;;;;;;4.69;63.39;101409.45;129653;1262;114734;-61
2023/05/09 00:12:42;;;;;;;21.10;11.90;;;;;;;4.68;63.50;101413.70;129623;1278;115082;-60
2023/05/09 00:15:45;;;;;;;;;;;;;;;4.67;63.65;101414.59;129676;1280;114884;-61
2023/05/09 00:18:47;;;;;;;16.30;11.70;;;;;;;4.65;64.04;101411.41;129510;1281;114728;-63
2023/05/09 00:21:50;;;;;;;21.40;12.00;;;;;;;4.63;64.04;101404.54;129571;1262;114731;-62
2023/05/09 00:24:52;;;;;;;17.50;12.10;;;;;;;4.63;64.04;101405.24;129770;1262;115445;-60
2023/05/09 00:27:54;;;;;;;24.60;13.40;;;;;;;4.62;64.19;101405.61;129756;1281;114794;-60
2023/05/09 00:30:57;;;;;;;20.00;12.80;;;;;;;4.61;64.33;101402.96;129624;1264;114797;-60
2023/05/09 00:33:59;;;;;;;22.10;13.20;;;;;;;4.61;64.34;101400.48;129493;1281;115579;-58
2023/05/09 00:37:02;;;;;;;22.80;12.50;;;;;;;4.60;64.50;101397.30;129562;1280;114740;-59
2023/05/09 00:40:08;;;;;;;;;;;;;;;4.57;64.61;101396.61;129501;1262;128719;-62
2023/05/09 00:43:10;;;;;;;20.40;12.30;;;;;;;4.54;64.75;101389.04;129553;1281;115164;-60
2023/05/09 00:46:13;;;;;;;21.40;13.10;;;;;;;4.52;64.76;101386.22;129749;1260;114787;-60
2023/05/09 00:49:15;;;;;;;21.10;13.00;;;;;;;4.50;64.75;101385.52;129700;1261;114779;-61
2023/05/09 00:52:22;;;;;;;27.80;12.60;;;;;;;4.49;65.12;101383.75;129631;1280;114837;-60
2023/05/09 00:55:25;;;;;;;22.00;13.50;;;;;;;4.48;65.00;101381.82;129296;1280;127824;-62
2023/05/09 00:58:28;;;;;;;23.60;14.50;;;;;;;4.47;65.06;101379.16;129557;1262;115117;-60
2023/05/09 01:01:31;;;;;;;21.40;13.40;;;;;;;4.45;65.18;101375.11;129742;1262;115222;-62
2023/05/09 01:04:33;;;;;;;21.30;11.70;;;;;;;4.44;65.18;101374.77;129664;1261;114742;-60
2023/05/09 01:07:55;;;;;;;20.30;12.70;;;;;;;4.42;65.19;101375.66;129447;1257;114771;-59
2023/05/09 01:11:09;;;;;;;19.10;12.60;;;;;;;4.39;65.54;101378.51;129334;1281;232998;-60
2023/05/09 01:14:19;;;;;;;18.90;11.40;;;;;;;4.38;65.52;101378.88;129215;1281;116470;-60
2023/05/09 01:17:43;;;;;;;18.90;10.80;;;;;;;4.36;65.62;101376.95;129293;1263;115067;-59
2023/05/09 01:21:07;;;;;;;19.30;11.40;;;;;;;4.35;65.73;101371.83;129292;1281;114713;-60
2023/05/09 01:24:39;;;;;;;18.70;10.80;;;;;;;4.34;65.92;101362.63;129458;1262;115002;-60
2023/05/09 01:27:59;;;;;;;20.10;11.70;;;;;;;4.32;66.10;101359.63;129671;1262;130055;-59
2023/05/09 01:31:03;;;;;;;18.80;11.00;;;;;;;4.31;65.84;101355.05;129477;1280;115192;-60
2023/05/09 01:34:06;;;;;;;20.70;12.20;;;;;;;4.29;66.04;101354.36;129790;1261;115001;-60
2023/05/09 01:37:08;;;;;;;17.10;11.10;;;;;;;4.26;66.10;101354.71;129564;1262;114752;-60
2023/05/09 01:40:14;;;;;;;24.20;13.50;;;;;;;4.25;66.24;101354.73;129722;1269;114719;-60
2023/05/09 01:43:18;;;;;;;19.00;12.10;;;;;;;4.23;66.05;101354.91;129523;1280;129684;-63
2023/05/09 01:46:21;;;;;;;14.50;9.40;;;;;;;4.21;66.21;101355.11;129489;1280;114783;-68
2023/05/09 01:49:24;;;;;;;21.30;13.00;;;;;;;4.19;66.22;101351.77;129571;1262;114757;-66
2023/05/09 01:52:26;;;;;;;20.60;11.60;;;;;;;4.16;66.24;101350.02;129542;1278;114739;-68
2023/05/09 01:55:33;;;;;;;19.60;12.40;;;;;;;4.14;66.48;101349.67;129798;1280;114751;-62
2023/05/09 01:58:37;;;;;;;21.20;12.20;;;;;;;4.13;66.62;101351.98;129843;1280;128799;-64
2023/05/09 02:01:39;;;;;;;19.80;12.00;;;;;;;4.12;66.66;101352.35;129447;1262;115145;-66
2023/05/09 02:04:42;;;;;;;18.60;11.80;;;;;;;4.09;66.77;101350.05;129731;1256;114846;-62
2023/05/09 02:07:46;;;;;;;21.10;12.70;;;;;;;4.09;66.74;101353.23;129673;1264;115380;-67
2023/05/09 02:10:48;;;;;;;20.10;12.40;;;;;;;4.06;66.58;101351.48;129735;1277;114743;-63
2023/05/09 02:13:50;;;;;;;22.70;12.20;;;;;;;4.03;66.70;101347.79;129492;1262;114739;-60
2023/05/09 02:16:53;;;;;;;23.10;12.40;;;;;;;4.00;66.65;101347.27;129618;1280;115051;-62
2023/05/09 02:19:55;;;;;;;18.10;12.30;;;;;;;3.96;66.69;101344.65;129610;1263;115192;-60
2023/05/09 02:22:57;;;;;;;20.30;11.80;;;;;;;3.91;66.62;101348.55;129648;1261;114788;-64
2023/05/09 02:26:00;;;;;;;25.00;12.70;;;;;;;3.86;66.63;101350.18;129523;1281;114718;-66
2023/05/09 02:29:05;;;;;;;24.50;12.40;;;;;;;3.80;66.69;101344.36;129669;1281;114713;-64
2023/05/09 02:32:08;;;;;;;24.50;14.70;;;;;;;3.74;66.80;101344.40;129383;1259;114831;-60
2023/05/09 02:35:12;;;;;;;22.70;13.50;;;;;;;3.68;67.02;101341.77;129414;1269;128528;-63
2023/05/09 02:38:14;;;;;;;23.30;13.10;;;;;;;3.65;67.20;101341.79;129526;1262;114785;-61
2023/05/09 02:41:17;;;;;;;22.70;12.00;;;;;;;3.62;67.31;101343.58;129665;1262;114819;-65
2023/05/09 02:44:19;;;;;;;22.20;13.20;;;;;;;3.61;67.60;101347.27;129535;1264;114716;-59
2023/05/09 02:47:22;;;;;;;22.80;13.10;;;;;;;3.59;67.76;101343.94;129497;1281;115178;-62
2023/05/09 02:50:24;;;;;;;20.00;12.80;;;;;;;3.58;67.61;101340.76;129534;1265;114991;-65
2023/05/09 02:53:27;;;;;;;24.40;13.90;;;;;;;3.56;67.88;101339.17;129646;1281;114796;-66
2023/05/09 02:56:29;;;;;;;22.40;14.10;;;;;;;3.55;67.86;101339.89;129491;1280;114728;-62
2023/05/09 02:59:31;;;;;;;22.20;14.00;;;;;;;3.53;68.01;101336.89;129618;1262;114810;-64
2023/05/09 03:02:35;;;;;;;23.70;14.50;;;;;;;3.52;68.29;101330.54;129594;1264;114886;-59
2023/05/09 03:05:37;;;;;;;21.80;14.20;;;;;;;3.53;68.44;101329.13;129468;1264;114890;-67
2023/05/09 03:08:39;;;;;;;21.90;13.40;;;;;;;3.54;68.40;101324.88;129534;1271;114728;-63
2023/05/09 03:11:41;;;;;;;24.50;14.50;;;;;;;3.56;68.53;101326.11;129546;1257;115096;-67
2023/05/09 03:14:44;;;;;;;26.30;14.30;;;;;;;3.57;68.61;101326.80;129429;1275;128818;-61
2023/05/09 03:17:46;;;;;;;22.80;13.10;;;;;;;3.59;68.62;101325.92;129536;1281;115165;-63
2023/05/09 03:20:49;;;;;;;22.40;13.30;;;;;;;3.61;68.55;101322.20;129603;1262;114748;-64
2023/05/09 03:23:51;;;;;;;35.60;14.80;;;;;;;3.63;68.69;101320.25;129536;1281;114807;-61
2023/05/09 03:26:54;;;;;;;19.90;12.60;;;;;;;3.65;68.71;101318.99;129422;1262;115327;-63
2023/05/09 03:29:56;;;;;;;20.60;12.90;;;;;;;3.68;68.75;101318.98;129446;1271;114724;-67
2023/05/09 03:32:58;;;;;;;22.00;13.00;;;;;;;3.70;68.61;101317.91;129229;1263;114739;-68
2023/05/09 03:36:01;;;;;;;25.60;13.90;;;;;;;3.73;68.78;101313.84;129535;1278;114853;-61
2023/05/09 03:39:03;;;;;;;25.60;13.60;;;;;;;3.75;68.77;101309.40;129278;1264;115258;-62
2023/05/09 03:42:05;;;;;;;20.00;13.10;;;;;;;3.78;68.76;101310.64;129479;1262;114737;-60
2023/05/09 03:45:08;;;;;;;22.80;12.60;;;;;;;3.81;68.87;101315.91;129500;1271;114783;-64
2023/05/09 03:48:10;;;;;;;22.80;12.50;;;;;;;3.86;68.85;101314.13;129656;1277;115140;-61
2023/05/09 03:51:13;;;;;;;15.70;11.60;;;;;;;3.90;69.02;101313.21;129318;1281;114940;-62
2023/05/09 03:54:15;;;;;;;18.50;12.20;;;;;;;3.95;69.03;101310.19;129592;1281;114732;-60
2023/05/09 03:57:17;;;;;;;23.90;12.80;;;;;;;4.02;69.15;101308.90;129523;1280;114811;-61
2023/05/09 04:00:21;;;;;;;22.90;12.00;;;;;;;4.09;69.21;101308.33;129646;1263;115202;-62
2023/05/09 04:03:23;;;;;;;18.80;11.20;;;;;;;4.16;69.36;101309.34;129715;1263;114710;-63
2023/05/09 04:06:25;;;;;;;22.30;11.90;;;;;;;4.23;69.28;101311.23;129661;1280;115084;-61
2023/05/09 04:09:27;;;;;;;21.00;11.00;;;;;;;4.30;69.05;101305.89;129782;1266;114720;-64
2023/05/09 04:12:29;;;;;;;18.60;11.50;;;;;;;4.38;69.08;101312.55;129558;1262;114877;-65
2023/05/09 04:15:31;;;;;;;18.10;10.60;;;;;;;4.46;69.12;101308.77;129605;1262;115418;-63
2023/05/09 04:18:35;;;;;;;15.00;10.00;;;;;;;4.55;69.12;101310.65;129622;1273;114712;-63
2023/05/09 04:21:37;;;;;;;18.50;11.10;;;;;;;4.65;69.07;101315.52;129578;1265;115196;-64
2023/05/09 04:24:40;;;;;;;17.90;11.10;;;;;;;4.75;69.06;101314.90;129617;1280;115554;-67
2023/05/09 04:27:42;;;;;;;20.00;10.80;;;;;;;4.85;69.17;101313.73;129651;1280;114888;-65
2023/05/09 04:30:44;;;;;;;19.90;11.00;;;;;;;4.96;69.10;101318.77;129698;1273;114827;-66
2023/05/09 04:33:47;;;;;;;16.20;11.10;;;;;;;5.06;69.03;101320.44;129652;1280;114812;-66
2023/05/09 04:36:50;;;;;;;17.60;10.40;;;;;;;5.18;68.92;101320.33;129577;1280;114827;-67
2023/05/09 04:39:53;;;;;;;17.20;10.90;;;;;;;5.31;68.87;101319.11;129619;1280;114795;-66
2023/05/09 04:42:56;;;;;;;19.60;11.40;;;;;;;5.48;68.81;101314.86;129679;1261;114715;-68
2023/05/09 04:45:58;;;;;;;17.00;10.30;;;;;;;5.81;69.11;101316.20;129603;1280;114747;-64
2023/05/09 04:49:00;;;;;;;14.60;10.00;;;;;;;6.82;69.76;101308.09;129645;1279;114722;-67
2023/05/09 04:52:03;;;;;;;26.00;11.40;;;;;;;8.14;69.12;101306.11;129919;1270;114770;-61
2023/05/09 04:55:06;;;;;;;15.50;10.10;;;;;;;9.48;67.98;101301.27;129487;1281;114872;-66
2023/05/09 04:58:09;;;;;;;16.80;9.60;;;;;;;10.79;66.71;101297.74;129537;1263;115385;-65
2023/05/09 05:01:11;;;;;;;15.10;8.30;;;;;;;11.83;64.58;101290.23;129496;1262;114831;-67
2023/05/09 05:04:13;;;;;;;16.80;8.70;;;;;;;12.76;62.90;101288.29;129629;1263;114750;-66
2023/05/09 05:07:16;;;;;;;13.10;8.50;;;;;;;13.49;61.69;101284.34;129588;1258;114774;-65
2023/05/09 05:10:18;;;;;;;13.30;8.30;;;;;;;14.25;60.80;101275.76;129498;1281;114800;-64
2023/05/09 05:13:20;;;;;;;9.40;7.50;;;;;;;14.85;58.96;101276.02;129422;1263;114825;-65
2023/05/09 05:16:23;;;;;;;12.00;8.10;;;;;;;15.30;58.09;101276.73;129448;1271;114712;-63
2023/05/09 05:19:25;;;;;;;12.60;7.20;;;;;;;15.78;56.83;101275.22;129431;1276;115241;-62
2023/05/09 05:22:27;;;;;;;9.60;7.10;;;;;;;16.21;56.20;101273.15;129646;1271;114896;-60
2023/05/09 05:25:33;;;;;;;9.70;7.00;;;;;;;16.50;54.23;101274.41;129524;1263;114829;-62
2023/05/09 05:28:34;;;;;;;;;;;;;;;16.63;54.16;101277.44;129634;1280;115087;-69
2023/05/09 05:31:37;;;;;;;10.30;5.90;;;;;;;16.67;52.36;101272.48;129545;1280;114730;-63
2023/05/09 05:34:40;;;;;;;8.80;6.10;;;;;;;16.58;52.12;101275.37;129640;1258;115555;-69
2023/05/09 05:37:43;;;;;;;11.40;7.10;;;;;;;16.75;52.07;101277.10;129733;1262;115247;-62
2023/05/09 05:40:45;;;;;;;9.20;6.30;;;;;;;16.90;50.94;101275.78;129637;1261;114732;-67
2023/05/09 05:43:48;;;;;;;10.90;6.70;;;;;;;16.98;50.89;101271.39;129660;1260;114687;-62
2023/05/09 05:46:50;;;;;;;8.30;6.10;;;;;;;16.96;49.40;101269.89;129527;1280;115508;-64
2023/05/09 05:49:52;;;;;;;8.50;6.20;;;;;;;16.88;48.57;101268.51;129618;1280;114717;-63
2023/05/09 05:52:54;;;;;;;13.00;6.10;;;;;;;16.65;47.70;101272.05;129590;1274;128848;-61
2023/05/09 05:55:56;;;;;;;9.00;5.60;;;;;;;16.72;49.55;101264.10;129433;1270;115247;-61
2023/05/09 05:58:59;;;;;;;7.60;6.40;;;;;;;17.10;48.88;101263.83;129735;1257;115326;-61
2023/05/09 06:02:01;;;;;;;8.90;6.20;;;;;;;17.52;48.50;101263.93;129609;1271;114854;-61
2023/05/09 06:05:05;;;;;;;9.50;5.80;;;;;;;17.80;47.15;101257.02;129518;1281;114663;-61
2023/05/09 06:08:08;;;;;;;10.50;6.50;;;;;;;17.99;46.48;101252.25;129413;1273;115154;-61
2023/05/09 06:11:10;;;;;;;6.70;5.70;;;;;;;18.18;46.02;101248.13;129487;1281;115428;-62
2023/05/09 06:14:12;;;;;;;9.30;6.20;;;;;;;18.43;46.48;101244.29;129535;1281;115093;-61
2023/05/09 06:17:15;;;;;;;9.30;6.30;;;;;;;18.80;45.31;101239.08;129501;1281;114806;-61
2023/05/09 06:20:17;;;;;;;8.30;5.20;;;;;;;19.08;45.18;101238.45;129256;1263;114866;-60
2023/05/09 06:23:21;;;;;;;9.90;5.30;;;;;;;19.32;44.17;101233.86;129508;1263;115110;-61
2023/05/09 06:26:23;;;;;;;8.10;4.80;;;;;;;19.36;42.70;101233.18;129652;1279;114769;-60
2023/05/09 06:29:25;;;;;;;7.30;5.10;;;;;;;19.42;42.39;101230.73;129508;1280;114759;-60
2023/05/09 06:32:28;;;;;;;5.90;4.80;;;;;;;19.44;42.96;101230.46;129706;1279;115315;-64
2023/05/09 06:35:30;;;;;;;8.50;5.50;;;;;;;19.68;43.31;101231.82;129658;1261;115212;-61
2023/05/09 06:38:33;;;;;;;6.20;4.40;;;;;;;19.96;41.46;101228.48;129463;1262;114792;-60
2023/05/09 06:41:36;;;;;;;9.90;5.30;;;;;;;20.01;41.70;101227.09;129691;1257;114698;-60
2023/05/09 06:44:38;;;;;;;8.30;5.10;;;;;;;20.01;41.03;101222.48;129557;1280;115186;-60
2023/05/09 06:47:40;;;;;;;6.20;4.50;;;;;;;19.96;41.02;101218.55;129815;1280;115389;-61
2023/05/09 06:50:43;;;;;;;7.20;4.50;;;;;;;19.99;41.14;101217.41;129762;1270;130307;-61
2023/05/09 06:53:45;;;;;;;6.70;5.00;;;;;;;20.11;40.45;101212.67;129543;1263;115255;-62
2023/05/09 06:56:48;;;;;;;7.80;4.90;;;;;;;20.16;40.17;101213.20;129921;1257;114830;-61
2023/05/09 06:59:50;;;;;;;6.10;4.20;;;;;;;20.27;40.51;101210.80;129637;1271;115189;-61
2023/05/09 07:02:52;;;;;;;7.80;4.50;;;;;;;20.32;38.32;101209.65;130740;1264;115120;-64
2023/05/09 07:05:57;;;;;;;7.10;4.80;;;;;;;20.25;38.58;101204.06;130243;1264;114829;-64
2023/05/09 07:08:59;;;;;;;6.50;5.10;;;;;;;20.15;37.99;101205.50;129733;1282;114823;-66
2023/05/09 07:12:02;;;;;;;11.20;5.70;;;;;;;20.07;38.44;101206.27;129685;1281;114754;-64
2023/05/09 07:15:05;;;;;;;10.70;4.10;;;;;;;20.17;37.34;101207.73;129654;1281;114745;-62
2023/05/09 07:18:08;;;;;;;6.90;4.20;;;;;;;20.28;37.14;101205.63;129694;1281;114802;-62
2023/05/09 07:21:10;;;;;;;5.70;4.20;;;;;;;20.35;36.74;101211.10;129629;1281;115162;-68
2023/05/09 07:24:12;;;;;;;5.10;4.30;;;;;;;20.12;36.36;101202.50;129565;1266;116058;-64
2023/05/09 07:27:15;;;;;;;4.60;3.50;;;;;;;20.18;37.01;101202.75;129456;1281;114717;-61
2023/05/09 07:30:17;;;;;;;7.00;3.70;;;;;;;20.19;36.36;101196.53;129454;1281;114747;-64
2023/05/09 07:33:20;;;;;;;5.50;4.00;;;;;;;20.14;36.51;101186.19;129634;1281;114763;-66
2023/05/09 07:36:22;;;;;;;5.50;4.50;;;;;;;20.31;36.14;101177.26;129715;1264;115212;-65
2023/05/09 07:39:24;;;;;;;6.10;3.90;;;;;;;20.52;35.88;101177.48;129523;1264;114722;-68
2023/05/09 07:42:29;;;;;;;10.30;3.80;;;;;;;20.70;35.63;101169.92;129571;1263;114790;-63
2023/05/09 07:45:31;;;;;;;7.90;3.70;;;;;;;20.85;34.83;101169.33;129782;1281;115422;-65
2023/05/09 07:48:33;;;;;;;5.10;3.50;;;;;;;20.68;34.93;101165.34;129530;1278;114742;-66
2023/05/09 07:51:36;;;;;;;4.20;3.60;;;;;;;20.65;35.01;101158.34;129791;1281;114758;-65
2023/05/09 07:54:38;;;;;;;5.80;3.40;;;;;;;20.59;34.95;101154.39;129459;1264;116430;-67
2023/05/09 07:57:41;;;;;;;7.20;3.70;;;;;;;20.47;34.37;101149.34;129489;1263;114778;-65
2023/05/09 08:00:43;;;;;;;6.60;3.50;;;;;;;20.37;35.13;101148.52;129465;1263;114850;-62
2023/05/09 08:03:46;;;;;;;8.00;4.20;;;;;;;20.55;34.88;101146.98;129542;1280;114820;-62
2023/05/09 08:06:48;;;;;;;4.70;4.10;;;;;;;20.63;34.65;101140.51;129736;1280;114965;-66
2023/05/09 08:09:51;;;;;;;11.20;3.70;;;;;;;20.64;34.62;101141.88;129486;1281;114742;-65
2023/05/09 08:12:53;;;;;;;6.30;3.60;;;;;;;20.53;34.30;101140.92;129619;1281;114741;-62
2023/05/09 08:15:56;;;;;;;8.40;4.10;;;;;;;20.31;34.42;101139.92;129550;1264;115479;-64
2023/05/09 08:18:58;;;;;;;4.10;3.40;;;;;;;20.44;34.81;101131.63;129378;1281;115026;-61
2023/05/09 08:22:00;;;;;;;6.00;3.60;;;;;;;20.53;34.01;101131.52;129512;1265;114716;-64
2023/05/09 08:25:03;;;;;;;12.20;3.40;;;;;;;20.41;34.07;101128.29;129592;1273;114741;-60
2023/05/09 08:28:06;;;;;;;9.20;3.70;;;;;;;20.47;33.50;101127.45;129462;1281;115094;-60
2023/05/09 08:31:08;;;;;;;8.70;3.30;;;;;;;20.60;33.43;101122.38;129604;1259;114739;-61
2023/05/09 08:34:11;;;;;;;8.80;3.70;;;;;;;20.72;33.30;101117.48;129460;1262;115512;-61
2023/05/09 08:37:13;;;;;;;6.50;2.90;;;;;;;20.70;32.86;101109.34;129478;1257;114708;-62
2023/05/09 08:40:16;;;;;;;5.70;3.50;;;;;;;20.49;33.06;101109.45;129733;1281;114847;-63
2023/05/09 08:43:20;;;;;;;9.40;3.50;;;;;;;20.55;33.54;101096.50;129264;1281;115281;-63
2023/05/09 08:46:30;;;;;;;5.00;3.00;;;;;;;20.84;34.03;101096.95;129333;1281;114776;-61
2023/05/09 08:49:32;;;;;;;5.30;3.00;;;;;;;20.99;33.33;101093.41;129336;1262;127780;-64
2023/05/09 08:52:35;;;;;;;6.00;3.00;;;;;;;20.63;32.18;101091.54;129578;1273;114812;-63
2023/05/09 08:55:38;;;;;;;7.00;3.80;;;;;;;20.03;32.32;101095.82;129824;1280;114693;-65
2023/05/09 08:58:41;;;;;;;5.20;3.10;;;;;;;19.61;32.76;101087.34;129820;1280;115163;-61
2023/05/09 09:01:44;;;;;;;6.00;3.00;;;;;;;19.31;33.18;101084.48;129727;1280;115432;-65
2023/05/09 09:04:50;;;;;;;6.90;3.80;;;;;;;19.04;33.21;101084.02;129577;1280;127714;-62
2023/05/09 09:07:52;;;;;;;6.40;3.70;;;;;;;18.88;33.92;101075.05;129583;1280;114827;-63
2023/05/09 09:10:55;;;;;;;6.60;2.90;;;;;;;18.83;34.02;101077.92;129795;1257;114805;-69
2023/05/09 09:14:00;;;;;;;3.50;2.90;;;;;;;18.81;34.15;101071.73;129815;1257;114721;-64
2023/05/09 09:17:04;;;;;;;8.60;3.40;;;;;;;18.78;33.86;101075.94;129686;1280;116390;-64
2023/05/09 09:20:09;;;;;;;4.40;2.80;;;;;;;18.83;34.11;101066.52;129565;1280;128879;-62
2023/05/09 09:23:11;;;;;;;7.10;3.10;;;;;;;18.82;33.70;101066.61;129937;1262;115161;-70
2023/05/09 09:26:14;;;;;;;5.80;3.20;;;;;;;18.65;33.78;101066.71;129648;1280;114813;-69
2023/05/09 09:29:19;;;;;;;5.20;3.20;;;;;;;18.48;33.37;101061.62;129504;1276;115142;-62
2023/05/09 09:32:21;;;;;;;;;;;;;;;18.27;33.99;101051.90;129618;1280;114824;-64
2023/05/09 09:35:24;;;;;;;5.90;2.90;;;;;;;18.21;34.27;101049.75;129501;1280;114808;-68
2023/05/09 09:38:26;;;;;;;5.80;2.90;;;;;;;18.22;34.67;101045.69;130065;1259;114726;-70
2023/05/09 09:41:32;;;;;;;4.60;3.10;;;;;;;18.19;34.72;101046.81;129787;1257;115232;-69
2023/05/09 09:44:35;;;;;;;5.40;3.20;;;;;;;18.13;34.86;101047.63;129600;1257;115219;-69
2023/05/09 09:47:37;;;;;;;4.90;2.80;;;;;;;17.96;34.53;101051.26;129800;1273;115218;-69
2023/05/09 09:50:39;;;;;;;4.50;2.70;;;;;;;17.86;35.20;101053.42;129966;1280;114708;-68
2023/05/09 09:53:42;;;;;;;3.30;2.70;;;;;;;17.72;34.97;101051.77;129603;1257;115653;-68
2023/05/09 09:56:47;;;;;;;5.40;3.10;;;;;;;17.55;35.03;101050.58;129515;1276;127934;-69
2023/05/09 09:59:57;;;;;;;8.20;4.00;;;;;;;17.40;35.11;101044.55;129611;1281;114741;-69
2023/05/09 10:03:00;;;;;;;3.50;2.90;;;;;;;17.24;35.69;101038.34;129455;1281;114664;-68
2023/05/09 10:06:03;;;;;;;6.60;3.40;;;;;;;17.31;36.07;101032.86;129539;1258;114760;-72
2023/05/09 10:09:05;;;;;;;5.50;3.00;;;;;;;17.24;35.77;101034.20;129523;1281;114801;-68
2023/05/09 10:12:08;;;;;;;5.90;3.10;;;;;;;17.16;36.33;101024.08;129577;1273;114744;-68
2023/05/09 10:15:11;;;;;;;5.50;3.10;;;;;;;17.20;36.31;101021.67;129667;1281;114802;-71
2023/05/09 10:18:18;;;;;;;6.20;3.20;;;;;;;17.15;36.16;101017.98;129796;1277;115345;-69
2023/05/09 10:21:20;;;;;;;6.80;3.00;;;;;;;17.09;36.38;101011.88;129848;1262;114814;-73
2023/05/09 10:24:34;;;;;;;4.60;3.10;;;;;;;17.07;36.34;101013.27;129820;1261;114757;-71
2023/05/09 10:27:37;;;;;;;5.70;3.30;;;;;;;16.96;35.93;101008.77;129520;1271;114722;-71
2023/05/09 10:31:06;;;;;;;5.60;3.10;;;;;;;16.86;36.37;101011.72;129675;1262;114778;-72
2023/05/09 10:34:09;;;;;;;13.30;4.10;;;;;;;16.80;36.69;101012.64;129643;1281;115159;-68
2023/05/09 10:37:12;;;;;;;4.80;3.40;;;;;;;16.71;36.67;101009.11;129559;1265;114892;-62
2023/05/09 10:40:14;;;;;;;4.40;2.70;;;;;;;16.69;37.12;101003.81;129607;1281;114715;-66
2023/05/09 10:43:17;;;;;;;7.40;3.30;;;;;;;16.67;37.15;100994.56;129853;1281;114747;-70
2023/05/09 10:46:19;;;;;;;4.10;3.10;;;;;;;16.71;37.31;100986.36;129790;1280;114735;-71
2023/05/09 10:49:22;;;;;;;4.70;3.50;;;;;;;16.72;37.18;100980.16;129748;1258;129002;-74
2023/05/09 10:52:24;;;;;;;5.20;2.60;;;;;;;16.68;37.26;100976.63;129932;1262;115350;-70
2023/05/09 10:55:54;;;;;;;6.50;4.00;;;;;;;16.65;37.22;100975.02;130073;1260;114714;-66
2023/05/09 10:58:58;;;;;;;3.80;2.70;;;;;;;16.70;37.39;100965.69;129627;1260;114689;-69
2023/05/09 11:02:02;;;;;;;3.40;2.40;;;;;;;16.78;37.45;100960.30;129451;1280;114977;-66
2023/05/09 11:05:14;;;;;;;4.20;2.90;;;;;;;16.82;37.34;100954.59;129407;1281;128252;-63
2023/05/09 11:08:26;;;;;;;4.30;3.00;;;;;;;16.88;37.43;100951.85;129545;1262;115172;-68
2023/05/09 11:11:29;;;;;;;3.50;3.20;;;;;;;16.93;37.33;100947.75;129456;1271;114900;-69
2023/05/09 11:14:39;;;;;;;3.80;2.50;;;;;;;16.95;37.21;100940.96;129489;1273;114811;-70
2023/05/09 11:17:42;;;;;;;3.90;2.80;;;;;;;16.96;37.17;100938.22;129583;1281;114723;-72
2023/05/09 11:20:47;;;;;;;7.00;3.80;;;;;;;17.01;36.92;100935.75;129558;1278;114744;-69
2023/05/09 11:23:50;;;;;;;6.40;2.50;;;;;;;17.11;37.06;100929.45;129440;1257;115218;-68
2023/05/09 11:26:52;;;;;;;9.90;3.00;;;;;;;17.15;36.99;100928.84;129541;1262;114803;-67
2023/05/09 11:29:58;;;;;;;5.20;3.20;;;;;;;17.16;36.95;100926.58;129629;1258;114847;-70
2023/05/09 11:33:01;;;;;;;3.90;3.20;;;;;;;17.18;37.06;100924.84;129504;1281;115453;-69
2023/05/09 11:36:26;;;;;;;4.20;2.70;;;;;;;17.17;37.05;100915.55;129448;1278;115003;-68
2023/05/09 11:39:29;;;;;;;5.10;2.80;;;;;;;17.15;36.78;100909.71;129409;1270;114708;-71
2023/05/09 11:42:32;;;;;;;6.50;2.80;;;;;;;17.15;36.58;100906.46;129479;1259;114825;-67
2023/05/09 11:45:34;;;;;;;14.00;3.10;;;;;;;17.11;36.42;100900.20;129500;1281;114809;-65
2023/05/09 11:48:37;;;;;;;4.70;2.60;;;;;;;17.08;36.28;100890.14;129536;1257;114774;-64
2023/05/09 11:51:40;;;;;;;4.70;2.80;;;;;;;17.04;36.52;100881.93;129570;1264;114771;-67
2023/05/09 11:54:42;;;;;;;6.80;2.40;;;;;;;17.03;36.38;100878.78;129451;1272;115315;-63
2023/05/09 11:57:48;;;;;;;4.90;2.80;;;;;;;17.03;36.48;100877.29;129515;1281;114741;-70
2023/05/09 12:00:50;;;;;;;;;;;;;;;17.02;36.25;100874.66;129584;1264;114684;-68
2023/05/09 12:03:52;;;;;;;6.90;3.60;;;;;;;17.00;36.50;100874.22;129508;1274;114822;-71
2023/05/09 12:06:57;;;;;;;7.80;3.10;;;;;;;16.98;36.48;100872.39;129631;1281;114798;-70
2023/05/09 12:10:02;;;;;;;6.20;2.90;;;;;;;16.93;36.23;100860.80;129451;1264;115173;-70
2023/05/09 12:13:05;;;;;;;5.90;3.50;;;;;;;16.91;36.37;100851.19;129322;1281;127187;-70
2023/05/09 12:16:07;;;;;;;5.80;2.80;;;;;;;16.94;37.00;100852.64;129466;1278;115242;-71
2023/05/09 12:19:10;;;;;;;6.20;3.20;;;;;;;17.00;36.80;100855.11;129635;1277;114952;-68
2023/05/09 12:22:13;;;;;;;4.20;2.60;;;;;;;17.04;36.29;100851.08;129935;1278;114815;-63
2023/05/09 12:25:15;;;;;;;4.50;2.80;;;;;;;17.03;36.12;100851.71;129755;1281;114829;-68
2023/05/09 12:28:20;;;;;;;4.20;2.70;;;;;;;17.04;36.49;100845.11;129457;1265;115531;-71
2023/05/09 12:31:22;;;;;;;4.70;2.40;;;;;;;17.05;36.35;100833.16;129932;1281;128948;-71
2023/05/09 12:34:25;;;;;;;6.90;2.80;;;;;;;17.07;36.37;100826.35;129954;1262;114828;-74
2023/05/09 12:37:29;;;;;;;4.00;2.50;;;;;;;17.08;36.09;100826.81;129812;1257;115220;-74
2023/05/09 12:40:31;;;;;;;4.80;2.80;;;;;;;17.07;35.92;100825.77;129873;1258;114752;-69
2023/05/09 12:43:38;;;;;;;5.70;2.70;;;;;;;17.07;36.05;100821.07;129420;1281;114744;-69
2023/05/09 12:46:40;;;;;;;7.80;3.20;;;;;;;17.08;36.16;100814.54;129702;1281;128552;-70
2023/05/09 12:49:48;;;;;;;7.80;3.00;;;;;;;17.12;35.96;100809.37;129628;1262;114788;-67
2023/05/09 12:52:54;;;;;;;5.30;2.20;;;;;;;17.14;35.81;100808.65;129400;1265;114809;-69
2023/05/09 12:56:17;;;;;;;4.40;2.60;;;;;;;17.15;35.82;100800.66;129192;1275;114711;-69
2023/05/09 12:59:21;;;;;;;10.50;2.70;;;;;;;17.15;35.75;100791.98;129394;1275;114828;-70
2023/05/09 13:02:26;;;;;;;4.20;2.50;;;;;;;17.15;35.89;100784.77;129314;1259;128695;-68
2023/05/09 13:05:30;;;;;;;6.40;2.90;;;;;;;17.20;36.26;100777.26;129497;1257;115166;-68
2023/05/09 13:08:33;;;;;;;10.10;3.00;;;;;;;17.25;35.80;100779.04;129453;1265;115328;-69
2023/05/09 13:11:36;;;;;;;5.10;2.90;;;;;;;17.29;36.09;100775.54;129304;1264;211383;-71
2023/05/09 13:14:39;;;;;;;6.30;3.30;;;;;;;17.35;35.95;100774.23;129442;1274;114729;-69
2023/05/09 13:17:41;;;;;;;7.40;2.40;;;;;;;17.36;35.75;100772.34;129430;1266;116107;-70
2023/05/09 13:20:44;;;;;;;7.50;2.90;;;;;;;17.37;35.77;100763.46;129445;1260;114746;-69
2023/05/09 13:23:48;;;;;;;9.30;2.90;;;;;;;17.37;35.37;100761.42;129512;1277;114796;-69
2023/05/09 13:26:51;;;;;;;;;;;;;;;17.37;35.68;100751.49;129114;1267;114890;-64
2023/05/09 13:29:54;;;;;;;4.00;2.70;;;;;;;17.40;35.39;100744.77;129485;1258;114788;-73
2023/05/09 13:32:56;;;;;;;9.30;2.70;;;;;;;17.40;35.29;100742.27;129528;1281;115185;-70
2023/05/09 13:35:59;;;;;;;5.60;2.80;;;;;;;17.39;35.32;100743.38;129454;1281;114803;-72
2023/05/09 13:39:03;;;;;;;4.80;2.70;;;;;;;17.41;35.43;100736.93;129553;1281;114745;-67
2023/05/09 13:42:06;;;;;;;3.00;2.60;;;;;;;17.41;35.23;100734.61;129534;1277;115167;-73
2023/05/09 13:45:10;;;;;;;6.80;2.50;;;;;;;17.41;35.17;100730.96;129555;1264;114738;-73
2023/05/09 13:48:13;;;;;;;5.30;2.80;;;;;;;17.39;35.23;100717.05;129458;1266;115427;-71
2023/05/09 13:51:16;;;;;;;2.10;1.90;;;;;;;17.37;35.32;100715.58;129493;1262;114869;-72